sensor_id;sensor_type;location;lat;lon;timestamp;temperature;humidity
75985;DHT22;65033;44.660;37.758;2023-04-01T00:00:59;8.12;59.50
75985;DHT22;65033;44.660;37.758;2023-04-01T00:02:05;8.12;60.12
75985;DHT22;65033;44.660;37.758;2023-04-01T00:03:10;8.13;60.51
75985;DHT22;65033;44.660;37.758;2023-04-01T00:04:13;8.15;60.76
75985;DHT22;65033;44.660;37.758;2023-04-01T00:05:17;8.16;60.45
75985;DHT22;65033;44.660;37.758;2023-04-01T00:06:20;8.15;59.57
75985;DHT22;65033;44.660;37.758;2023-04-01T00:07:24;8.20;59.27
75985;DHT22;65033;44.660;37.758;2023-04-01T00:08:29;8.19;59.19
75985;DHT22;65033;44.660;37.758;2023-04-01T00:09:33;8.17;58.61
75985;DHT22;65033;44.660;37.758;2023-04-01T00:10:38;8.17;58.64
75985;DHT22;65033;44.660;37.758;2023-04-01T00:11:41;8.19;58.74
75985;DHT22;65033;44.660;37.758;2023-04-01T00:12:47;8.19;58.22
75985;DHT22;65033;44.660;37.758;2023-04-01T00:13:51;8.19;58.19
75985;DHT22;65033;44.660;37.758;2023-04-01T00:14:54;8.18;57.80
75985;DHT22;65033;44.660;37.758;2023-04-01T00:15:58;8.19;57.82
75985;DHT22;65033;44.660;37.758;2023-04-01T00:17:01;8.20;58.38
75985;DHT22;65033;44.660;37.758;2023-04-01T00:18:05;8.20;58.93
75985;DHT22;65033;44.660;37.758;2023-04-01T00:19:09;8.21;59.28
75985;DHT22;65033;44.660;37.758;2023-04-01T00:20:13;8.21;58.37
75985;DHT22;65033;44.660;37.758;2023-04-01T00:21:18;8.21;58.22
75985;DHT22;65033;44.660;37.758;2023-04-01T00:22:22;8.21;57.16
75985;DHT22;65033;44.660;37.758;2023-04-01T00:23:25;8.19;57.49
75985;DHT22;65033;44.660;37.758;2023-04-01T00:24:30;8.20;57.09
75985;DHT22;65033;44.660;37.758;2023-04-01T00:25:34;8.18;57.53
75985;DHT22;65033;44.660;37.758;2023-04-01T00:26:38;8.17;57.40
75985;DHT22;65033;44.660;37.758;2023-04-01T00:27:41;8.17;57.95
75985;DHT22;65033;44.660;37.758;2023-04-01T00:28:45;8.17;58.05
75985;DHT22;65033;44.660;37.758;2023-04-01T00:29:49;8.20;58.18
75985;DHT22;65033;44.660;37.758;2023-04-01T00:30:52;8.18;57.74
75985;DHT22;65033;44.660;37.758;2023-04-01T00:31:56;8.17;57.64
75985;DHT22;65033;44.660;37.758;2023-04-01T00:32:59;8.18;57.21
75985;DHT22;65033;44.660;37.758;2023-04-01T00:34:03;8.18;57.16
75985;DHT22;65033;44.660;37.758;2023-04-01T00:35:08;8.17;57.41
75985;DHT22;65033;44.660;37.758;2023-04-01T00:36:13;8.16;57.93
75985;DHT22;65033;44.660;37.758;2023-04-01T00:37:17;8.13;56.83
75985;DHT22;65033;44.660;37.758;2023-04-01T00:38:20;8.12;56.64
75985;DHT22;65033;44.660;37.758;2023-04-01T00:39:24;8.12;57.13
75985;DHT22;65033;44.660;37.758;2023-04-01T00:40:32;8.12;57.52
75985;DHT22;65033;44.660;37.758;2023-04-01T00:41:36;8.13;57.64
75985;DHT22;65033;44.660;37.758;2023-04-01T00:42:40;8.11;57.89
75985;DHT22;65033;44.660;37.758;2023-04-01T00:43:44;8.13;58.55
75985;DHT22;65033;44.660;37.758;2023-04-01T00:44:51;8.12;58.97
75985;DHT22;65033;44.660;37.758;2023-04-01T00:45:55;8.13;58.59
75985;DHT22;65033;44.660;37.758;2023-04-01T00:46:58;8.13;58.15
75985;DHT22;65033;44.660;37.758;2023-04-01T00:48:07;8.15;57.99
75985;DHT22;65033;44.660;37.758;2023-04-01T00:49:12;8.13;58.35
75985;DHT22;65033;44.660;37.758;2023-04-01T00:50:16;8.12;58.71
75985;DHT22;65033;44.660;37.758;2023-04-01T00:51:22;8.13;58.88
75985;DHT22;65033;44.660;37.758;2023-04-01T00:52:26;8.14;58.57
75985;DHT22;65033;44.660;37.758;2023-04-01T00:53:31;8.15;58.60
75985;DHT22;65033;44.660;37.758;2023-04-01T00:54:36;8.16;58.11
75985;DHT22;65033;44.660;37.758;2023-04-01T00:55:45;8.16;57.91
75985;DHT22;65033;44.660;37.758;2023-04-01T00:56:55;8.17;57.35
75985;DHT22;65033;44.660;37.758;2023-04-01T00:58:00;8.16;56.55
75985;DHT22;65033;44.660;37.758;2023-04-01T00:59:08;8.18;56.84
75985;DHT22;65033;44.660;37.758;2023-04-01T01:00:15;8.18;57.49
75985;DHT22;65033;44.660;37.758;2023-04-01T01:01:20;8.19;57.55
75985;DHT22;65033;44.660;37.758;2023-04-01T01:02:25;8.20;57.36
75985;DHT22;65033;44.660;37.758;2023-04-01T01:03:28;8.17;56.86
75985;DHT22;65033;44.660;37.758;2023-04-01T01:04:33;8.18;57.10
75985;DHT22;65033;44.660;37.758;2023-04-01T01:05:53;8.18;57.02
75985;DHT22;65033;44.660;37.758;2023-04-01T01:07:10;8.19;57.83
75985;DHT22;65033;44.660;37.758;2023-04-01T01:08:19;8.17;57.90
75985;DHT22;65033;44.660;37.758;2023-04-01T01:09:30;8.16;57.92
75985;DHT22;65033;44.660;37.758;2023-04-01T01:10:35;8.17;57.51
75985;DHT22;65033;44.660;37.758;2023-04-01T01:11:44;8.16;57.87
75985;DHT22;65033;44.660;37.758;2023-04-01T01:12:55;8.16;58.23
75985;DHT22;65033;44.660;37.758;2023-04-01T01:14:06;8.15;58.60
75985;DHT22;65033;44.660;37.758;2023-04-01T01:15:21;8.16;59.07
75985;DHT22;65033;44.660;37.758;2023-04-01T01:16:29;8.17;59.19
75985;DHT22;65033;44.660;37.758;2023-04-01T01:17:42;8.16;59.42
75985;DHT22;65033;44.660;37.758;2023-04-01T01:18:51;8.14;59.41
75985;DHT22;65033;44.660;37.758;2023-04-01T01:20:24;8.14;58.60
75985;DHT22;65033;44.660;37.758;2023-04-01T01:21:53;8.16;58.74
75985;DHT22;65033;44.660;37.758;2023-04-01T01:23:29;8.16;59.39
75985;DHT22;65033;44.660;37.758;2023-04-01T01:24:49;8.18;59.49
75985;DHT22;65033;44.660;37.758;2023-04-01T01:26:08;8.16;59.35
75985;DHT22;65033;44.660;37.758;2023-04-01T01:27:16;8.16;59.22
75985;DHT22;65033;44.660;37.758;2023-04-01T01:28:31;8.16;58.70
75985;DHT22;65033;44.660;37.758;2023-04-01T01:29:48;8.16;59.54
75985;DHT22;65033;44.660;37.758;2023-04-01T01:31:00;8.16;59.49
75985;DHT22;65033;44.660;37.758;2023-04-01T01:32:08;8.16;59.27
75985;DHT22;65033;44.660;37.758;2023-04-01T01:33:36;8.16;59.16
75985;DHT22;65033;44.660;37.758;2023-04-01T01:34:50;8.17;59.08
75985;DHT22;65033;44.660;37.758;2023-04-01T01:35:59;8.17;58.43
75985;DHT22;65033;44.660;37.758;2023-04-01T01:37:07;8.17;59.02
75985;DHT22;65033;44.660;37.758;2023-04-01T01:38:15;8.19;58.67
75985;DHT22;65033;44.660;37.758;2023-04-01T01:39:28;8.19;58.47
75985;DHT22;65033;44.660;37.758;2023-04-01T01:40:34;8.19;59.54
75985;DHT22;65033;44.660;37.758;2023-04-01T01:41:39;8.19;60.31
75985;DHT22;65033;44.660;37.758;2023-04-01T01:42:47;8.19;60.07
75985;DHT22;65033;44.660;37.758;2023-04-01T01:43:53;8.20;60.15
75985;DHT22;65033;44.660;37.758;2023-04-01T01:44:59;8.21;60.09
75985;DHT22;65033;44.660;37.758;2023-04-01T01:46:07;8.22;60.04
75985;DHT22;65033;44.660;37.758;2023-04-01T01:47:13;8.22;59.60
75985;DHT22;65033;44.660;37.758;2023-04-01T01:48:18;8.24;59.45
75985;DHT22;65033;44.660;37.758;2023-04-01T01:49:23;8.26;59.43
75985;DHT22;65033;44.660;37.758;2023-04-01T01:50:28;8.29;59.73
75985;DHT22;65033;44.660;37.758;2023-04-01T01:51:34;8.29;60.00
75985;DHT22;65033;44.660;37.758;2023-04-01T01:52:39;8.30;60.48
75985;DHT22;65033;44.660;37.758;2023-04-01T01:53:44;8.31;61.33
75985;DHT22;65033;44.660;37.758;2023-04-01T01:54:49;8.31;61.21
75985;DHT22;65033;44.660;37.758;2023-04-01T01:55:54;8.28;60.91
75985;DHT22;65033;44.660;37.758;2023-04-01T01:57:03;8.28;60.25
75985;DHT22;65033;44.660;37.758;2023-04-01T01:58:13;8.29;60.56
75985;DHT22;65033;44.660;37.758;2023-04-01T01:59:20;8.29;60.48
75985;DHT22;65033;44.660;37.758;2023-04-01T02:00:26;8.28;61.01
75985;DHT22;65033;44.660;37.758;2023-04-01T02:01:33;8.28;60.70
75985;DHT22;65033;44.660;37.758;2023-04-01T02:02:46;8.29;60.40
75985;DHT22;65033;44.660;37.758;2023-04-01T02:03:52;8.30;59.89
75985;DHT22;65033;44.660;37.758;2023-04-01T02:04:56;8.31;59.92
75985;DHT22;65033;44.660;37.758;2023-04-01T02:06:02;8.31;60.27
75985;DHT22;65033;44.660;37.758;2023-04-01T02:07:10;8.31;60.41
75985;DHT22;65033;44.660;37.758;2023-04-01T02:08:20;8.31;60.38
75985;DHT22;65033;44.660;37.758;2023-04-01T02:09:24;8.30;60.39
75985;DHT22;65033;44.660;37.758;2023-04-01T02:10:29;8.31;60.35
75985;DHT22;65033;44.660;37.758;2023-04-01T02:11:38;8.31;60.60
75985;DHT22;65033;44.660;37.758;2023-04-01T02:12:46;8.30;60.65
75985;DHT22;65033;44.660;37.758;2023-04-01T02:13:52;8.30;60.86
75985;DHT22;65033;44.660;37.758;2023-04-01T02:15:03;8.30;61.28
75985;DHT22;65033;44.660;37.758;2023-04-01T02:16:10;8.30;61.19
75985;DHT22;65033;44.660;37.758;2023-04-01T02:17:17;8.33;61.43
75985;DHT22;65033;44.660;37.758;2023-04-01T02:18:21;8.34;61.75
75985;DHT22;65033;44.660;37.758;2023-04-01T02:19:29;8.35;61.84
75985;DHT22;65033;44.660;37.758;2023-04-01T02:20:36;8.34;62.04
75985;DHT22;65033;44.660;37.758;2023-04-01T02:21:41;8.34;61.25
75985;DHT22;65033;44.660;37.758;2023-04-01T02:22:49;8.34;60.72
75985;DHT22;65033;44.660;37.758;2023-04-01T02:23:54;8.35;60.40
75985;DHT22;65033;44.660;37.758;2023-04-01T02:25:00;8.33;60.95
75985;DHT22;65033;44.660;37.758;2023-04-01T02:26:05;8.34;60.89
75985;DHT22;65033;44.660;37.758;2023-04-01T02:27:10;8.34;61.39
75985;DHT22;65033;44.660;37.758;2023-04-01T02:28:14;8.35;61.32
75985;DHT22;65033;44.660;37.758;2023-04-01T02:29:24;8.35;61.05
75985;DHT22;65033;44.660;37.758;2023-04-01T02:30:33;8.37;60.12
75985;DHT22;65033;44.660;37.758;2023-04-01T02:31:38;8.38;60.05
75985;DHT22;65033;44.660;37.758;2023-04-01T02:32:41;8.39;59.90
75985;DHT22;65033;44.660;37.758;2023-04-01T02:33:46;8.43;60.00
75985;DHT22;65033;44.660;37.758;2023-04-01T02:34:50;8.43;60.24
75985;DHT22;65033;44.660;37.758;2023-04-01T02:35:54;8.47;60.59
75985;DHT22;65033;44.660;37.758;2023-04-01T02:36:58;8.49;61.02
75985;DHT22;65033;44.660;37.758;2023-04-01T02:38:03;8.50;60.70
75985;DHT22;65033;44.660;37.758;2023-04-01T02:39:07;8.51;61.02
75985;DHT22;65033;44.660;37.758;2023-04-01T02:40:12;8.51;61.35
75985;DHT22;65033;44.660;37.758;2023-04-01T02:41:17;8.51;61.34
75985;DHT22;65033;44.660;37.758;2023-04-01T02:42:21;8.53;61.21
75985;DHT22;65033;44.660;37.758;2023-04-01T02:43:24;8.53;60.83
75985;DHT22;65033;44.660;37.758;2023-04-01T02:44:28;8.53;60.69
75985;DHT22;65033;44.660;37.758;2023-04-01T02:45:31;8.56;60.42
75985;DHT22;65033;44.660;37.758;2023-04-01T02:46:35;8.56;60.82
75985;DHT22;65033;44.660;37.758;2023-04-01T02:47:39;8.57;60.98
75985;DHT22;65033;44.660;37.758;2023-04-01T02:48:43;8.58;60.96
75985;DHT22;65033;44.660;37.758;2023-04-01T02:49:47;8.58;59.90
75985;DHT22;65033;44.660;37.758;2023-04-01T02:50:50;8.59;60.05
75985;DHT22;65033;44.660;37.758;2023-04-01T02:51:53;8.57;60.35
75985;DHT22;65033;44.660;37.758;2023-04-01T02:52:56;8.58;60.38
75985;DHT22;65033;44.660;37.758;2023-04-01T02:54:02;8.61;60.36
75985;DHT22;65033;44.660;37.758;2023-04-01T02:55:06;8.62;59.78
75985;DHT22;65033;44.660;37.758;2023-04-01T02:56:09;8.62;59.80
75985;DHT22;65033;44.660;37.758;2023-04-01T02:57:13;8.63;59.76
75985;DHT22;65033;44.660;37.758;2023-04-01T02:58:16;8.62;59.58
75985;DHT22;65033;44.660;37.758;2023-04-01T02:59:20;8.63;59.27
75985;DHT22;65033;44.660;37.758;2023-04-01T03:00:24;8.61;59.41
75985;DHT22;65033;44.660;37.758;2023-04-01T03:01:28;8.60;59.60
75985;DHT22;65033;44.660;37.758;2023-04-01T03:02:31;8.61;59.35
75985;DHT22;65033;44.660;37.758;2023-04-01T03:03:35;8.61;59.12
75985;DHT22;65033;44.660;37.758;2023-04-01T03:04:39;8.60;59.36
75985;DHT22;65033;44.660;37.758;2023-04-01T03:05:42;8.59;59.15
75985;DHT22;65033;44.660;37.758;2023-04-01T03:06:45;8.61;59.94
75985;DHT22;65033;44.660;37.758;2023-04-01T03:07:48;8.61;59.85
75985;DHT22;65033;44.660;37.758;2023-04-01T03:08:52;8.64;60.37
75985;DHT22;65033;44.660;37.758;2023-04-01T03:09:57;8.62;60.50
75985;DHT22;65033;44.660;37.758;2023-04-01T03:11:00;8.62;60.42
75985;DHT22;65033;44.660;37.758;2023-04-01T03:12:05;8.66;60.59
75985;DHT22;65033;44.660;37.758;2023-04-01T03:13:19;8.67;60.72
75985;DHT22;65033;44.660;37.758;2023-04-01T03:14:23;8.68;60.02
75985;DHT22;65033;44.660;37.758;2023-04-01T03:15:26;8.67;59.50
75985;DHT22;65033;44.660;37.758;2023-04-01T03:16:29;8.70;59.65
75985;DHT22;65033;44.660;37.758;2023-04-01T03:17:33;8.73;59.85
75985;DHT22;65033;44.660;37.758;2023-04-01T03:18:36;8.73;60.46
75985;DHT22;65033;44.660;37.758;2023-04-01T03:19:39;8.74;60.93
75985;DHT22;65033;44.660;37.758;2023-04-01T03:20:44;8.73;60.56
75985;DHT22;65033;44.660;37.758;2023-04-01T03:21:47;8.73;60.69
75985;DHT22;65033;44.660;37.758;2023-04-01T03:22:51;8.72;60.64
75985;DHT22;65033;44.660;37.758;2023-04-01T03:23:54;8.74;60.96
75985;DHT22;65033;44.660;37.758;2023-04-01T03:24:59;8.77;61.03
75985;DHT22;65033;44.660;37.758;2023-04-01T03:26:02;8.77;60.76
75985;DHT22;65033;44.660;37.758;2023-04-01T03:27:06;8.80;61.34
75985;DHT22;65033;44.660;37.758;2023-04-01T03:28:09;8.81;61.01
75985;DHT22;65033;44.660;37.758;2023-04-01T03:29:13;8.80;59.62
75985;DHT22;65033;44.660;37.758;2023-04-01T03:30:19;8.81;59.53
75985;DHT22;65033;44.660;37.758;2023-04-01T03:31:25;8.81;58.90
75985;DHT22;65033;44.660;37.758;2023-04-01T03:32:31;8.80;58.13
75985;DHT22;65033;44.660;37.758;2023-04-01T03:33:35;8.79;58.49
75985;DHT22;65033;44.660;37.758;2023-04-01T03:34:38;8.80;58.52
75985;DHT22;65033;44.660;37.758;2023-04-01T03:35:42;8.82;58.53
75985;DHT22;65033;44.660;37.758;2023-04-01T03:36:45;8.83;58.71
75985;DHT22;65033;44.660;37.758;2023-04-01T03:37:49;8.87;59.07
75985;DHT22;65033;44.660;37.758;2023-04-01T03:38:53;8.90;59.64
75985;DHT22;65033;44.660;37.758;2023-04-01T03:40:09;8.92;59.97
75985;DHT22;65033;44.660;37.758;2023-04-01T03:41:13;8.97;60.39
75985;DHT22;65033;44.660;37.758;2023-04-01T03:42:18;9.00;60.61
75985;DHT22;65033;44.660;37.758;2023-04-01T03:43:21;9.01;61.57
75985;DHT22;65033;44.660;37.758;2023-04-01T03:44:25;9.01;61.03
75985;DHT22;65033;44.660;37.758;2023-04-01T03:45:29;9.05;60.58
75985;DHT22;65033;44.660;37.758;2023-04-01T03:46:33;9.07;59.95
75985;DHT22;65033;44.660;37.758;2023-04-01T03:47:37;9.11;59.43
75985;DHT22;65033;44.660;37.758;2023-04-01T03:48:40;9.14;59.64
75985;DHT22;65033;44.660;37.758;2023-04-01T03:49:44;9.16;59.84
75985;DHT22;65033;44.660;37.758;2023-04-01T03:50:47;9.18;59.74
75985;DHT22;65033;44.660;37.758;2023-04-01T03:51:51;9.21;59.41
75985;DHT22;65033;44.660;37.758;2023-04-01T03:52:54;9.24;59.25
75985;DHT22;65033;44.660;37.758;2023-04-01T03:53:58;9.25;59.73
75985;DHT22;65033;44.660;37.758;2023-04-01T03:55:02;9.26;59.62
75985;DHT22;65033;44.660;37.758;2023-04-01T03:56:08;9.27;59.70
75985;DHT22;65033;44.660;37.758;2023-04-01T03:57:11;9.31;60.56
75985;DHT22;65033;44.660;37.758;2023-04-01T03:58:15;9.35;60.28
75985;DHT22;65033;44.660;37.758;2023-04-01T03:59:18;9.34;59.36
75985;DHT22;65033;44.660;37.758;2023-04-01T04:00:22;9.36;59.25
75985;DHT22;65033;44.660;37.758;2023-04-01T04:01:30;9.35;59.64
75985;DHT22;65033;44.660;37.758;2023-04-01T04:02:34;9.35;59.52
75985;DHT22;65033;44.660;37.758;2023-04-01T04:03:42;9.38;59.12
75985;DHT22;65033;44.660;37.758;2023-04-01T04:04:48;9.39;59.12
75985;DHT22;65033;44.660;37.758;2023-04-01T04:05:51;9.44;59.25
75985;DHT22;65033;44.660;37.758;2023-04-01T04:06:55;9.48;58.82
75985;DHT22;65033;44.660;37.758;2023-04-01T04:07:59;9.49;58.61
75985;DHT22;65033;44.660;37.758;2023-04-01T04:09:02;9.90;83.28
75985;DHT22;65033;44.660;37.758;2023-04-01T04:10:07;10.86;73.65
75985;DHT22;65033;44.660;37.758;2023-04-01T04:11:12;10.90;54.89
75985;DHT22;65033;44.660;37.758;2023-04-01T04:12:17;10.83;54.45
75985;DHT22;65033;44.660;37.758;2023-04-01T04:13:20;10.72;55.00
75985;DHT22;65033;44.660;37.758;2023-04-01T04:14:31;10.62;55.34
75985;DHT22;65033;44.660;37.758;2023-04-01T04:15:35;10.51;55.94
75985;DHT22;65033;44.660;37.758;2023-04-01T04:16:38;10.40;56.22
75985;DHT22;65033;44.660;37.758;2023-04-01T04:17:43;10.34;56.24
75985;DHT22;65033;44.660;37.758;2023-04-01T04:18:46;10.34;57.06
75985;DHT22;65033;44.660;37.758;2023-04-01T04:19:50;10.29;57.36
75985;DHT22;65033;44.660;37.758;2023-04-01T04:20:54;10.27;57.03
75985;DHT22;65033;44.660;37.758;2023-04-01T04:21:57;10.29;56.55
75985;DHT22;65033;44.660;37.758;2023-04-01T04:23:03;10.28;56.03
75985;DHT22;65033;44.660;37.758;2023-04-01T04:24:07;10.27;55.74
75985;DHT22;65033;44.660;37.758;2023-04-01T04:25:36;10.22;56.11
75985;DHT22;65033;44.660;37.758;2023-04-01T04:26:41;10.20;56.16
75985;DHT22;65033;44.660;37.758;2023-04-01T04:27:44;10.15;55.96
75985;DHT22;65033;44.660;37.758;2023-04-01T04:28:49;10.15;55.09
75985;DHT22;65033;44.660;37.758;2023-04-01T04:29:53;10.11;55.48
75985;DHT22;65033;44.660;37.758;2023-04-01T04:30:56;10.11;55.73
75985;DHT22;65033;44.660;37.758;2023-04-01T04:32:00;10.11;56.26
75985;DHT22;65033;44.660;37.758;2023-04-01T04:33:03;10.13;56.26
75985;DHT22;65033;44.660;37.758;2023-04-01T04:34:07;10.12;56.65
75985;DHT22;65033;44.660;37.758;2023-04-01T04:35:11;10.14;56.99
75985;DHT22;65033;44.660;37.758;2023-04-01T04:36:15;10.15;57.41
75985;DHT22;65033;44.660;37.758;2023-04-01T04:37:18;10.19;57.57
75985;DHT22;65033;44.660;37.758;2023-04-01T04:38:22;10.19;58.17
75985;DHT22;65033;44.660;37.758;2023-04-01T04:39:25;10.22;58.14
75985;DHT22;65033;44.660;37.758;2023-04-01T04:40:28;10.22;58.39
75985;DHT22;65033;44.660;37.758;2023-04-01T04:41:32;10.26;58.79
75985;DHT22;65033;44.660;37.758;2023-04-01T04:42:37;10.33;59.32
75985;DHT22;65033;44.660;37.758;2023-04-01T04:43:49;10.34;57.77
75985;DHT22;65033;44.660;37.758;2023-04-01T04:44:53;10.37;57.78
75985;DHT22;65033;44.660;37.758;2023-04-01T04:45:57;10.38;57.22
75985;DHT22;65033;44.660;37.758;2023-04-01T04:47:00;10.40;56.58
75985;DHT22;65033;44.660;37.758;2023-04-01T04:48:04;10.40;55.78
75985;DHT22;65033;44.660;37.758;2023-04-01T04:49:09;10.42;55.84
75985;DHT22;65033;44.660;37.758;2023-04-01T04:50:12;10.48;56.13
75985;DHT22;65033;44.660;37.758;2023-04-01T04:51:17;10.49;56.86
75985;DHT22;65033;44.660;37.758;2023-04-01T04:52:21;10.49;57.00
75985;DHT22;65033;44.660;37.758;2023-04-01T04:53:24;10.64;63.65
75985;DHT22;65033;44.660;37.758;2023-04-01T04:54:28;11.60;87.74
75985;DHT22;65033;44.660;37.758;2023-04-01T04:55:34;12.15;56.56
75985;DHT22;65033;44.660;37.758;2023-04-01T04:56:56;12.05;52.47
75985;DHT22;65033;44.660;37.758;2023-04-01T04:58:02;11.82;52.55
75985;DHT22;65033;44.660;37.758;2023-04-01T04:59:06;11.69;52.27
75985;DHT22;65033;44.660;37.758;2023-04-01T05:00:23;11.49;52.91
75985;DHT22;65033;44.660;37.758;2023-04-01T05:01:32;11.43;53.21
75985;DHT22;65033;44.660;37.758;2023-04-01T05:02:36;11.29;54.22
75985;DHT22;65033;44.660;37.758;2023-04-01T05:03:39;11.23;54.34
75985;DHT22;65033;44.660;37.758;2023-04-01T05:04:43;11.14;54.84
75985;DHT22;65033;44.660;37.758;2023-04-01T05:05:50;11.14;55.39
75985;DHT22;65033;44.660;37.758;2023-04-01T05:06:54;11.07;54.90
75985;DHT22;65033;44.660;37.758;2023-04-01T05:07:58;11.00;54.57
75985;DHT22;65033;44.660;37.758;2023-04-01T05:09:02;10.93;55.42
75985;DHT22;65033;44.660;37.758;2023-04-01T05:10:06;10.88;56.17
75985;DHT22;65033;44.660;37.758;2023-04-01T05:11:12;10.86;56.29
75985;DHT22;65033;44.660;37.758;2023-04-01T05:12:17;10.88;56.41
75985;DHT22;65033;44.660;37.758;2023-04-01T05:13:42;10.96;55.33
75985;DHT22;65033;44.660;37.758;2023-04-01T05:14:46;10.99;54.35
75985;DHT22;65033;44.660;37.758;2023-04-01T05:15:49;11.02;54.73
75985;DHT22;65033;44.660;37.758;2023-04-01T05:16:52;11.02;55.23
75985;DHT22;65033;44.660;37.758;2023-04-01T05:17:57;11.05;55.14
75985;DHT22;65033;44.660;37.758;2023-04-01T05:19:00;11.07;55.15
75985;DHT22;65033;44.660;37.758;2023-04-01T05:20:05;11.07;55.26
75985;DHT22;65033;44.660;37.758;2023-04-01T05:21:10;11.12;55.61
75985;DHT22;65033;44.660;37.758;2023-04-01T05:22:13;11.07;55.46
75985;DHT22;65033;44.660;37.758;2023-04-01T05:23:18;11.07;55.10
75985;DHT22;65033;44.660;37.758;2023-04-01T05:24:23;11.15;54.55
75985;DHT22;65033;44.660;37.758;2023-04-01T05:25:27;11.20;53.72
75985;DHT22;65033;44.660;37.758;2023-04-01T05:26:30;11.23;53.75
75985;DHT22;65033;44.660;37.758;2023-04-01T05:27:35;11.24;54.38
75985;DHT22;65033;44.660;37.758;2023-04-01T05:28:39;11.26;55.28
75985;DHT22;65033;44.660;37.758;2023-04-01T05:29:44;11.20;54.55
75985;DHT22;65033;44.660;37.758;2023-04-01T05:31:05;11.22;53.37
75985;DHT22;65033;44.660;37.758;2023-04-01T05:32:11;11.12;53.36
75985;DHT22;65033;44.660;37.758;2023-04-01T05:33:15;11.05;53.85
75985;DHT22;65033;44.660;37.758;2023-04-01T05:34:18;11.05;53.68
75985;DHT22;65033;44.660;37.758;2023-04-01T05:35:22;11.59;61.50
75985;DHT22;65033;44.660;37.758;2023-04-01T05:36:26;11.92;58.05
75985;DHT22;65033;44.660;37.758;2023-04-01T05:37:30;11.90;53.24
75985;DHT22;65033;44.660;37.758;2023-04-01T05:38:33;11.81;53.59
75985;DHT22;65033;44.660;37.758;2023-04-01T05:39:37;11.81;53.34
75985;DHT22;65033;44.660;37.758;2023-04-01T05:40:41;11.70;53.93
75985;DHT22;65033;44.660;37.758;2023-04-01T05:41:45;11.67;54.72
75985;DHT22;65033;44.660;37.758;2023-04-01T05:42:48;11.64;54.94
75985;DHT22;65033;44.660;37.758;2023-04-01T05:43:52;11.60;54.50
75985;DHT22;65033;44.660;37.758;2023-04-01T05:45:16;11.64;54.45
75985;DHT22;65033;44.660;37.758;2023-04-01T05:46:37;11.68;54.33
75985;DHT22;65033;44.660;37.758;2023-04-01T05:47:54;11.64;54.93
75985;DHT22;65033;44.660;37.758;2023-04-01T05:48:58;11.63;55.22
75985;DHT22;65033;44.660;37.758;2023-04-01T05:50:02;11.63;55.74
75985;DHT22;65033;44.660;37.758;2023-04-01T05:51:05;11.60;55.11
75985;DHT22;65033;44.660;37.758;2023-04-01T05:52:09;11.59;54.13
75985;DHT22;65033;44.660;37.758;2023-04-01T05:53:12;11.56;54.23
75985;DHT22;65033;44.660;37.758;2023-04-01T05:54:19;11.56;54.41
75985;DHT22;65033;44.660;37.758;2023-04-01T05:55:22;11.53;55.28
75985;DHT22;65033;44.660;37.758;2023-04-01T05:56:26;11.46;55.50
75985;DHT22;65033;44.660;37.758;2023-04-01T05:57:30;11.42;55.89
75985;DHT22;65033;44.660;37.758;2023-04-01T05:58:34;11.47;56.05
75985;DHT22;65033;44.660;37.758;2023-04-01T05:59:37;11.55;54.77
75985;DHT22;65033;44.660;37.758;2023-04-01T06:00:43;11.55;54.94
75985;DHT22;65033;44.660;37.758;2023-04-01T06:01:48;11.58;54.27
75985;DHT22;65033;44.660;37.758;2023-04-01T06:02:52;11.60;54.48
75985;DHT22;65033;44.660;37.758;2023-04-01T06:03:55;11.64;54.30
75985;DHT22;65033;44.660;37.758;2023-04-01T06:05:03;11.61;53.35
75985;DHT22;65033;44.660;37.758;2023-04-01T06:06:14;11.62;54.04
75985;DHT22;65033;44.660;37.758;2023-04-01T06:07:18;11.62;54.12
75985;DHT22;65033;44.660;37.758;2023-04-01T06:08:22;11.60;54.40
75985;DHT22;65033;44.660;37.758;2023-04-01T06:09:28;11.71;54.53
75985;DHT22;65033;44.660;37.758;2023-04-01T06:10:39;11.68;54.42
75985;DHT22;65033;44.660;37.758;2023-04-01T06:12:01;11.74;53.36
75985;DHT22;65033;44.660;37.758;2023-04-01T06:13:26;11.76;54.08
75985;DHT22;65033;44.660;37.758;2023-04-01T06:14:37;11.79;54.06
75985;DHT22;65033;44.660;37.758;2023-04-01T06:15:51;11.79;53.85
75985;DHT22;65033;44.660;37.758;2023-04-01T06:17:05;12.12;72.12
75985;DHT22;65033;44.660;37.758;2023-04-01T06:18:35;12.76;70.39
75985;DHT22;65033;44.660;37.758;2023-04-01T06:19:50;12.90;52.06
75985;DHT22;65033;44.660;37.758;2023-04-01T06:20:59;12.80;51.73
75985;DHT22;65033;44.660;37.758;2023-04-01T06:22:33;12.67;52.60
75985;DHT22;65033;44.660;37.758;2023-04-01T06:23:46;12.64;51.93
75985;DHT22;65033;44.660;37.758;2023-04-01T06:24:59;12.60;51.42
75985;DHT22;65033;44.660;37.758;2023-04-01T06:26:28;12.52;51.99
75985;DHT22;65033;44.660;37.758;2023-04-01T06:27:45;12.52;52.50
75985;DHT22;65033;44.660;37.758;2023-04-01T06:29:05;12.60;52.78
75985;DHT22;65033;44.660;37.758;2023-04-01T06:30:29;12.60;52.63
75985;DHT22;65033;44.660;37.758;2023-04-01T06:31:50;12.58;51.60
75985;DHT22;65033;44.660;37.758;2023-04-01T06:33:12;12.62;51.72
75985;DHT22;65033;44.660;37.758;2023-04-01T06:34:36;12.59;52.24
75985;DHT22;65033;44.660;37.758;2023-04-01T06:35:59;12.62;52.58
75985;DHT22;65033;44.660;37.758;2023-04-01T06:37:34;12.53;51.63
75985;DHT22;65033;44.660;37.758;2023-04-01T06:39:04;12.49;52.25
75985;DHT22;65033;44.660;37.758;2023-04-01T06:40:28;12.58;53.02
75985;DHT22;65033;44.660;37.758;2023-04-01T06:43:13;12.70;52.20
75985;DHT22;65033;44.660;37.758;2023-04-01T06:44:45;12.80;51.75
75985;DHT22;65033;44.660;37.758;2023-04-01T06:46:20;12.87;51.37
75985;DHT22;65033;44.660;37.758;2023-04-01T06:48:00;12.79;67.94
75985;DHT22;65033;44.660;37.758;2023-04-01T06:49:36;13.73;54.73
75985;DHT22;65033;44.660;37.758;2023-04-01T06:51:12;13.47;50.72
75985;DHT22;65033;44.660;37.758;2023-04-01T06:52:46;13.24;50.90
75985;DHT22;65033;44.660;37.758;2023-04-01T06:54:28;13.17;50.85
75985;DHT22;65033;44.660;37.758;2023-04-01T06:55:59;13.16;50.62
75985;DHT22;65033;44.660;37.758;2023-04-01T06:57:20;13.05;50.05
75985;DHT22;65033;44.660;37.758;2023-04-01T06:58:30;13.11;50.34
75985;DHT22;65033;44.660;37.758;2023-04-01T06:59:37;13.00;50.18
75985;DHT22;65033;44.660;37.758;2023-04-01T07:00:43;13.05;50.40
75985;DHT22;65033;44.660;37.758;2023-04-01T07:01:49;13.14;50.87
75985;DHT22;65033;44.660;37.758;2023-04-01T07:03:02;13.19;50.11
75985;DHT22;65033;44.660;37.758;2023-04-01T07:04:13;13.06;50.13
75985;DHT22;65033;44.660;37.758;2023-04-01T07:05:19;13.06;50.79
75985;DHT22;65033;44.660;37.758;2023-04-01T07:06:26;12.99;50.34